Time;durP1;ratioP1;P1;durP2;ratioP2;P2;SDS_P1;SDS_P2;PMS_P1;PMS_P2;Temp;Humidity;BMP_temperature;BMP_pressure;BME280_temperature;BME280_humidity;BME280_pressure;Samples;Min_cycle;Max_cycle;Signal;HPM_P1;HPM_P2
2021/06/27 00:00:43;;;;;;;11.12;7.17;;;;;;;17.86;100.00;98858.72;1626024;86;21638;-71
2021/06/27 00:03:15;;;;;;;12.63;7.60;;;;;;;17.86;100.00;98865.66;1644010;85;21042;-71
2021/06/27 00:05:40;;;;;;;13.78;7.80;;;;;;;17.87;100.00;98871.42;1627192;86;21646;-71
2021/06/27 00:08:07;;;;;;;16.07;7.72;;;;;;;17.85;100.00;98864.86;1627698;87;21051;-70
2021/06/27 00:10:40;;;;;;;17.27;8.13;;;;;;;17.85;100.00;98867.64;1627794;87;21088;-71
2021/06/27 00:13:07;;;;;;;12.95;7.40;;;;;;;17.85;100.00;98864.06;1657569;85;21126;-71
2021/06/27 00:15:42;;;;;;;9.43;7.12;;;;;;;17.84;100.00;98849.38;1639975;86;20924;-71
2021/06/27 00:18:10;;;;;;;14.63;7.05;;;;;;;17.84;100.00;98843.83;1651337;86;21509;-71
2021/06/27 00:20:38;;;;;;;16.30;8.03;;;;;;;17.84;100.00;98836.09;1635497;86;20983;-71
2021/06/27 00:23:04;;;;;;;10.58;6.97;;;;;;;17.84;100.00;98838.86;1632660;86;21021;-71
2021/06/27 00:25:31;;;;;;;12.35;6.85;;;;;;;17.83;100.00;98840.84;1655488;85;21116;-71
2021/06/27 00:27:58;;;;;;;14.40;8.05;;;;;;;17.81;100.00;98839.83;1660696;85;20907;-71
2021/06/27 00:30:25;;;;;;;15.00;8.30;;;;;;;17.81;100.00;98832.89;1660355;86;21031;-71
2021/06/27 00:32:52;;;;;;;11.43;7.53;;;;;;;17.82;100.00;98836.47;1630387;86;21001;-71
2021/06/27 00:35:18;;;;;;;13.85;8.38;;;;;;;17.82;100.00;98836.47;1625675;86;21028;-70
2021/06/27 00:37:45;;;;;;;14.63;8.35;;;;;;;17.81;100.00;98831.50;1653268;85;21912;-70
2021/06/27 00:40:15;;;;;;;12.78;8.35;;;;;;;17.83;100.00;98844.20;1633942;86;20916;-70
2021/06/27 00:42:42;;;;;;;13.58;8.38;;;;;;;17.80;100.00;98839.62;1632089;86;20950;-70
2021/06/27 00:45:12;;;;;;;15.03;8.20;;;;;;;17.82;100.00;98853.13;1633550;86;21523;-71
2021/06/27 00:47:39;;;;;;;14.73;7.42;;;;;;;17.80;100.00;98854.89;1616285;86;21070;-71
2021/06/27 00:50:12;;;;;;;13.05;8.20;;;;;;;17.79;100.00;98860.83;1635980;86;21852;-70
2021/06/27 00:52:38;;;;;;;14.07;7.37;;;;;;;17.79;100.00;98857.46;1632812;87;21017;-70
2021/06/27 00:55:06;;;;;;;13.22;7.28;;;;;;;17.79;100.00;98858.85;1659246;85;21424;-70
2021/06/27 00:57:32;;;;;;;13.88;7.62;;;;;;;17.81;100.00;98870.38;1658264;85;21003;-70
2021/06/27 01:00:03;;;;;;;13.88;7.65;;;;;;;17.84;100.00;98874.95;1629762;86;21136;-70
2021/06/27 01:02:30;;;;;;;13.30;8.00;;;;;;;17.85;100.00;98873.78;1658654;85;21124;-70
2021/06/27 01:04:56;;;;;;;13.38;7.42;;;;;;;17.85;100.00;98875.17;1648958;86;20877;-71
2021/06/27 01:07:22;;;;;;;10.63;7.92;;;;;;;17.88;100.00;98880.76;1648547;86;20908;-70
2021/06/27 01:09:49;;;;;;;11.88;7.58;;;;;;;17.88;100.00;98877.98;1648293;87;21531;-70
2021/06/27 01:12:15;;;;;;;17.25;7.90;;;;;;;17.89;100.00;98871.84;1648529;86;20952;-70
2021/06/27 01:14:42;;;;;;;12.20;7.90;;;;;;;17.88;100.00;98875.20;1648371;87;21151;-70
2021/06/27 01:17:08;;;;;;;11.55;7.83;;;;;;;17.88;100.00;98868.85;1648312;87;20996;-70
2021/06/27 01:19:35;;;;;;;15.55;7.97;;;;;;;17.90;100.00;98878.98;1648420;87;21523;-70
2021/06/27 01:22:01;;;;;;;14.93;8.08;;;;;;;17.89;100.00;98881.56;1648569;87;20940;-70
2021/06/27 01:24:28;;;;;;;10.63;7.62;;;;;;;17.89;100.00;98887.11;1648347;87;21542;-70
2021/06/27 01:26:54;;;;;;;12.10;7.60;;;;;;;17.90;100.00;98880.37;1648513;86;21094;-71
2021/06/27 01:29:21;;;;;;;16.97;8.58;;;;;;;17.89;100.00;98878.78;1648366;86;21450;-70
2021/06/27 01:31:47;;;;;;;10.30;8.45;;;;;;;17.90;100.00;98881.77;1648563;87;21074;-71
2021/06/27 01:34:14;;;;;;;13.80;8.23;;;;;;;17.87;100.00;98876.38;1648357;86;21487;-70
2021/06/27 01:36:40;;;;;;;14.78;8.80;;;;;;;17.86;100.00;98876.77;1648283;87;21007;-70
2021/06/27 01:39:07;;;;;;;13.65;7.80;;;;;;;17.84;100.00;98875.75;1648261;86;21126;-70
2021/06/27 01:41:34;;;;;;;11.75;8.38;;;;;;;17.81;100.00;98868.98;1648311;87;20948;-70
2021/06/27 01:44:00;;;;;;;14.50;8.13;;;;;;;17.81;100.00;98868.19;1648279;86;21000;-70
2021/06/27 01:46:26;;;;;;;18.17;9.00;;;;;;;17.80;100.00;98861.84;1648442;87;21463;-70
2021/06/27 01:48:53;;;;;;;9.85;7.42;;;;;;;17.79;100.00;98857.46;1648273;87;20940;-69
2021/06/27 01:51:21;;;;;;;14.75;8.90;;;;;;;17.79;100.00;98865.79;1648479;86;21855;-69
2021/06/27 01:53:47;;;;;;;13.55;8.08;;;;;;;17.78;100.00;98863.39;1648199;87;21060;-70
2021/06/27 01:56:14;;;;;;;12.93;8.03;;;;;;;17.78;100.00;98862.80;1648599;86;21023;-70
2021/06/27 01:58:47;;;;;;;16.50;8.18;;;;;;;17.80;100.00;98861.84;1648260;87;20964;-69
2021/06/27 02:01:26;;;;;;;13.13;7.97;;;;;;;17.81;100.00;98864.02;1648625;87;20908;-68
2021/06/27 02:03:52;;;;;;;14.45;8.60;;;;;;;17.81;100.00;98859.27;1648376;87;21816;-71
2021/06/27 02:06:20;;;;;;;12.98;8.58;;;;;;;17.79;100.00;98864.41;1648209;87;21068;-70
2021/06/27 02:08:48;;;;;;;15.05;8.33;;;;;;;17.81;100.00;98868.98;1648530;86;20906;-70
2021/06/27 02:11:17;;;;;;;13.55;7.58;;;;;;;17.84;100.00;98869.41;1648386;86;21448;-70
2021/06/27 02:13:44;;;;;;;13.00;8.63;;;;;;;17.86;100.00;98871.21;1648410;87;21504;-70
2021/06/27 02:16:10;;;;;;;14.63;8.98;;;;;;;17.87;100.00;98868.64;1631663;86;21129;-69
2021/06/27 02:18:44;;;;;;;15.38;8.93;;;;;;;17.89;100.00;98871.84;1637034;86;21561;-70
2021/06/27 02:21:27;;;;;;;13.72;8.58;;;;;;;17.90;100.00;98876.21;1648387;86;20932;-69
2021/06/27 02:23:53;;;;;;;15.72;8.30;;;;;;;17.93;100.00;98868.48;1646102;85;20934;-70
2021/06/27 02:26:21;;;;;;;11.88;8.85;;;;;;;17.98;100.00;98870.91;1664476;84;20993;-70
2021/06/27 02:28:47;;;;;;;16.07;7.70;;;;;;;18.00;100.00;98877.69;1663039;85;21135;-72
2021/06/27 02:31:14;;;;;;;17.77;8.75;;;;;;;18.05;100.00;98875.16;1661354;85;20995;-71
2021/06/27 02:33:41;;;;;;;11.43;8.18;;;;;;;18.08;100.00;98882.72;1652215;85;21016;-70
2021/06/27 02:36:08;;;;;;;12.03;7.92;;;;;;;18.09;100.00;98893.45;1646124;85;21062;-71
2021/06/27 02:38:35;;;;;;;10.03;7.83;;;;;;;18.12;100.00;98902.41;1647132;87;21026;-70
2021/06/27 02:41:02;;;;;;;15.88;7.87;;;;;;;18.17;100.00;98901.86;1654988;85;21127;-70
2021/06/27 02:43:29;;;;;;;14.38;8.15;;;;;;;18.24;100.00;98899.95;1643409;87;21033;-69
2021/06/27 02:45:55;;;;;;;14.47;7.97;;;;;;;18.29;100.00;98894.05;1646545;87;20983;-71
2021/06/27 02:48:22;;;;;;;15.00;10.50;;;;;;;18.33;100.00;98900.44;1646834;87;20967;-69
2021/06/27 02:50:49;;;;;;;12.53;8.95;;;;;;;18.38;100.00;98902.06;1669979;85;21007;-71
2021/06/27 02:53:15;;;;;;;18.95;8.33;;;;;;;18.45;100.00;98899.34;1675444;85;21071;-70
2021/06/27 02:55:42;;;;;;;11.63;7.33;;;;;;;18.51;100.00;98895.59;1675294;85;20865;-69
2021/06/27 02:58:08;;;;;;;14.00;8.73;;;;;;;18.57;100.00;98890.69;1675450;85;21520;-70
2021/06/27 03:00:34;;;;;;;10.08;8.70;;;;;;;18.62;100.00;98892.34;1675347;85;20940;-69
2021/06/27 03:03:01;;;;;;;13.98;8.33;;;;;;;18.71;100.00;98892.22;1675453;85;21522;-70
2021/06/27 03:05:28;;;;;;;12.68;7.17;;;;;;;18.76;100.00;98891.06;1675394;85;21182;-70
2021/06/27 03:07:56;;;;;;;14.58;7.42;;;;;;;18.76;100.00;98904.97;1644497;85;20864;-70
2021/06/27 03:10:22;;;;;;;14.70;6.92;;;;;;;18.81;100.00;98903.22;1630492;88;20995;-70
2021/06/27 03:12:50;;;;;;;13.25;7.53;;;;;;;18.86;100.00;98907.03;1631697;87;21013;-69
2021/06/27 03:15:20;;;;;;;13.20;8.30;;;;;;;18.89;100.00;98897.92;1630272;87;21538;-69
2021/06/27 03:17:47;;;;;;;12.65;8.50;;;;;;;18.93;100.00;98901.52;1630374;88;21864;-71
2021/06/27 03:20:15;;;;;;;13.03;8.78;;;;;;;18.99;100.00;98897.19;1630302;87;20959;-69
2021/06/27 03:22:44;;;;;;;15.28;9.10;;;;;;;19.10;100.00;98898.03;1630284;88;20995;-71
2021/06/27 03:25:10;;;;;;;12.90;9.25;;;;;;;19.16;100.00;98902.63;1630625;87;21004;-69
2021/06/27 03:27:37;;;;;;;12.80;8.10;;;;;;;19.22;100.00;98900.28;1630410;88;21046;-69
2021/06/27 03:30:06;;;;;;;14.80;7.95;;;;;;;19.25;100.00;98900.30;1642963;87;21115;-69
2021/06/27 03:32:32;;;;;;;11.03;8.68;;;;;;;19.25;100.00;98903.68;1647687;87;20954;-69
2021/06/27 03:34:59;;;;;;;8.95;8.03;;;;;;;19.26;100.00;98910.25;1647635;87;21057;-70
2021/06/27 03:37:27;;;;;;;17.30;8.83;;;;;;;19.28;100.00;98909.86;1647772;86;21464;-70
2021/06/27 03:39:53;;;;;;;17.98;9.38;;;;;;;19.28;100.00;98905.09;1647612;87;20969;-72
2021/06/27 03:42:20;;;;;;;14.20;8.13;;;;;;;19.31;100.00;98906.30;1647516;87;21131;-73
2021/06/27 03:44:46;;;;;;;13.62;8.23;;;;;;;19.32;100.00;98913.45;1647551;87;20977;-69
2021/06/27 03:47:13;;;;;;;15.38;8.70;;;;;;;19.34;100.00;98909.69;1647965;85;20946;-71
2021/06/27 03:49:39;;;;;;;13.03;8.45;;;;;;;19.40;100.00;98897.00;1630140;87;21607;-69
2021/06/27 03:52:06;;;;;;;10.53;8.10;;;;;;;19.50;100.00;98899.05;1605967;89;20886;-71
2021/06/27 03:54:33;;;;;;;13.58;8.70;;;;;;;19.60;100.00;98892.75;1606156;89;21024;-68
2021/06/27 03:57:01;;;;;;;17.15;9.30;;;;;;;19.66;100.00;98890.36;1605834;89;21099;-69
2021/06/27 03:59:28;;;;;;;13.48;9.63;;;;;;;19.77;100.00;98895.37;1605843;89;21081;-69
2021/06/27 04:01:54;;;;;;;15.83;9.10;;;;;;;19.85;100.00;98892.02;1604561;89;21116;-70
2021/06/27 04:04:20;;;;;;;12.40;9.18;;;;;;;19.96;100.00;98884.49;1605465;89;21508;-72
2021/06/27 04:06:47;;;;;;;15.00;8.98;;;;;;;20.02;100.00;98884.30;1638508;86;21196;-71
2021/06/27 04:09:14;;;;;;;11.97;8.73;;;;;;;20.06;100.00;98883.13;1633439;86;21003;-70
2021/06/27 04:11:41;;;;;;;12.33;9.80;;;;;;;20.13;100.00;98885.12;1656507;86;21587;-70
2021/06/27 04:14:07;;;;;;;10.68;8.55;;;;;;;20.20;100.00;98886.53;1647588;86;20944;-69
2021/06/27 04:16:34;;;;;;;18.30;9.33;;;;;;;20.29;100.00;98888.91;1641691;86;21472;-68
2021/06/27 04:19:00;;;;;;;12.95;9.28;;;;;;;20.31;100.00;98876.77;1626881;86;21868;-70
2021/06/27 04:21:27;;;;;;;21.15;9.63;;;;;;;20.37;100.00;98873.19;1666953;85;20969;-69
2021/06/27 04:23:53;;;;;;;16.60;10.30;;;;;;;20.38;100.00;98878.99;1665012;85;20950;-70
2021/06/27 04:26:20;;;;;;;19.05;9.75;;;;;;;20.34;100.00;98882.34;1643944;87;21603;-69
2021/06/27 04:28:47;;;;;;;11.68;9.15;;;;;;;20.32;100.00;98881.94;1646333;87;21018;-71
2021/06/27 04:31:13;;;;;;;12.45;8.93;;;;;;;20.31;100.00;98880.95;1646009;87;21208;-70
2021/06/27 04:33:41;;;;;;;13.38;7.92;;;;;;;20.24;100.00;98883.13;1645665;87;21005;-70
2021/06/27 04:36:08;;;;;;;14.25;9.70;;;;;;;20.20;100.00;98889.92;1644923;87;21077;-69
2021/06/27 04:38:34;;;;;;;12.10;9.15;;;;;;;20.10;100.00;98889.50;1645570;87;21090;-70
2021/06/27 04:41:00;;;;;;;17.15;9.03;;;;;;;20.05;100.00;98894.66;1646463;87;21621;-70
2021/06/27 04:43:27;;;;;;;16.00;9.78;;;;;;;19.99;100.00;98899.03;1646714;87;21131;-70
2021/06/27 04:45:53;;;;;;;17.17;9.90;;;;;;;19.99;100.00;98904.00;1645568;87;21054;-71
2021/06/27 04:48:20;;;;;;;11.88;9.28;;;;;;;20.06;100.00;98897.66;1646011;87;21018;-69
2021/06/27 04:50:47;;;;;;;12.58;9.88;;;;;;;20.15;100.00;98903.64;1646746;86;20946;-76
2021/06/27 04:53:14;;;;;;;15.48;9.70;;;;;;;20.20;100.00;98900.47;1646559;87;21469;-78
2021/06/27 04:55:40;;;;;;;12.68;8.93;;;;;;;20.26;100.00;98900.84;1646832;87;21061;-75
2021/06/27 04:58:07;;;;;;;10.90;8.75;;;;;;;20.26;100.00;98894.67;1646575;87;20943;-72
2021/06/27 05:00:33;;;;;;;12.28;9.83;;;;;;;20.26;100.00;98899.45;1646750;86;20907;-74
2021/06/27 05:03:01;;;;;;;16.25;9.73;;;;;;;20.27;100.00;98896.86;1646654;86;20966;-71
2021/06/27 05:05:28;;;;;;;12.75;9.98;;;;;;;20.26;100.00;98907.22;1646806;87;21564;-73
2021/06/27 05:07:54;;;;;;;15.83;9.93;;;;;;;20.28;100.00;98902.05;1646601;87;21132;-69
2021/06/27 05:10:21;;;;;;;10.38;9.30;;;;;;;20.39;100.00;98895.12;1646538;86;21537;-71
2021/06/27 05:12:47;;;;;;;12.00;9.38;;;;;;;20.50;100.00;98899.31;1646693;87;21580;-68
2021/06/27 05:15:14;;;;;;;16.90;9.70;;;;;;;20.57;100.00;98895.13;1646641;87;20934;-68
2021/06/27 05:17:40;;;;;;;17.12;9.40;;;;;;;20.59;100.00;98894.94;1646618;86;21565;-71
2021/06/27 05:20:08;;;;;;;13.08;9.78;;;;;;;20.61;100.00;98907.09;1646528;87;21209;-73
2021/06/27 05:22:35;;;;;;;14.28;9.73;;;;;;;20.63;100.00;98900.51;1646763;87;21081;-71
2021/06/27 05:25:01;;;;;;;13.68;10.23;;;;;;;20.67;100.00;98904.09;1646657;87;21556;-77
2021/06/27 05:27:27;;;;;;;11.25;9.13;;;;;;;20.68;100.00;98902.90;1646847;86;21013;-76
2021/06/27 05:29:54;;;;;;;12.07;8.98;;;;;;;20.76;100.00;98917.84;1646587;87;21461;-70
2021/06/27 05:32:20;;;;;;;12.18;8.58;;;;;;;20.83;100.00;98919.80;1646837;87;21090;-71
2021/06/27 05:34:46;;;;;;;13.88;8.73;;;;;;;20.94;100.00;98930.36;1646446;87;21541;-69
2021/06/27 05:37:13;;;;;;;11.08;8.95;;;;;;;21.07;100.00;98926.56;1646419;86;20994;-76
2021/06/27 05:39:39;;;;;;;14.07;8.35;;;;;;;21.21;100.00;98927.97;1646137;86;21602;-69
2021/06/27 05:42:07;;;;;;;9.80;8.20;;;;;;;21.39;100.00;98926.50;1646489;87;21516;-70
2021/06/27 05:44:34;;;;;;;13.45;8.23;;;;;;;21.57;100.00;98922.26;1646569;87;21148;-68
2021/06/27 05:47:00;;;;;;;13.45;8.30;;;;;;;21.72;100.00;98927.39;1628068;87;20986;-71
2021/06/27 05:49:27;;;;;;;12.50;9.13;;;;;;;21.82;100.00;98924.96;1644850;85;20891;-75
2021/06/27 05:51:54;;;;;;;11.35;8.45;;;;;;;21.88;100.00;98933.12;1634137;87;21489;-76
2021/06/27 05:54:20;;;;;;;9.23;8.25;;;;;;;21.95;100.00;98933.84;1648109;86;21540;-76
2021/06/27 05:56:46;;;;;;;14.90;8.90;;;;;;;22.01;100.00;98924.44;1647934;87;21573;-76
2021/06/27 05:59:13;;;;;;;12.78;9.73;;;;;;;22.05;100.00;98921.85;1647955;86;21501;-76
2021/06/27 06:01:39;;;;;;;9.25;7.87;;;;;;;22.16;100.00;98917.59;1647984;87;20974;-76
2021/06/27 06:04:06;;;;;;;9.45;7.58;;;;;;;22.25;100.00;98927.73;1647249;86;21560;-70
2021/06/27 06:06:32;;;;;;;11.05;8.53;;;;;;;22.30;100.00;98924.50;1647329;87;21087;-72
2021/06/27 06:08:59;;;;;;;10.70;8.50;;;;;;;22.33;100.00;98934.87;1647395;86;21549;-78
2021/06/27 06:11:26;;;;;;;12.45;9.48;;;;;;;22.45;100.00;98936.39;1640036;85;21556;-70
2021/06/27 06:13:54;;;;;;;14.18;9.60;;;;;;;22.62;100.00;98938.23;1630233;85;21057;-69
2021/06/27 06:16:20;;;;;;;12.33;8.90;;;;;;;22.79;100.00;98939.94;1620870;88;21070;-69
2021/06/27 06:18:47;;;;;;;10.75;8.95;;;;;;;23.00;100.00;98944.76;1621511;88;21624;-70
2021/06/27 06:21:14;;;;;;;11.20;9.13;;;;;;;23.20;100.00;98942.75;1651277;85;21535;-72
2021/06/27 06:23:41;;;;;;;13.10;10.38;;;;;;;23.38;100.00;98932.96;1673343;85;21556;-72
2021/06/27 06:26:08;;;;;;;11.15;9.18;;;;;;;23.49;100.00;98933.45;1688602;84;21038;-71
2021/06/27 06:28:35;;;;;;;11.55;9.65;;;;;;;23.55;100.00;98935.41;1683861;84;21498;-72
2021/06/27 06:31:03;;;;;;;12.05;9.20;;;;;;;23.56;100.00;98933.41;1675096;84;20980;-73
2021/06/27 06:33:30;;;;;;;11.55;8.60;;;;;;;23.56;100.00;98935.59;1647939;85;21175;-72
2021/06/27 06:35:56;;;;;;;9.90;7.78;;;;;;;23.57;100.00;98935.78;1627189;86;21060;-70
2021/06/27 06:38:22;;;;;;;11.78;8.35;;;;;;;23.55;100.00;98936.81;1647169;86;21001;-73
2021/06/27 06:40:49;;;;;;;9.35;7.40;;;;;;;23.51;100.00;98930.42;1621114;85;21144;-72
2021/06/27 06:43:15;;;;;;;12.15;7.22;;;;;;;23.47;100.00;98931.06;1638069;86;21614;-72
2021/06/27 06:45:42;;;;;;;13.93;9.70;;;;;;;23.40;97.89;98928.34;1626963;86;21558;-71
2021/06/27 06:48:08;;;;;;;22.62;9.63;;;;;;;23.34;100.00;98927.20;1639199;86;21056;-72
2021/06/27 06:50:35;;;;;;;13.28;8.28;;;;;;;23.34;100.00;98925.80;1613343;86;21496;-72
2021/06/27 06:53:02;;;;;;;14.65;7.40;;;;;;;23.39;100.00;98923.34;1609260;88;21013;-71
2021/06/27 06:55:28;;;;;;;9.30;7.22;;;;;;;23.49;100.00;98925.84;1610509;87;21577;-72
2021/06/27 06:57:55;;;;;;;10.82;6.30;;;;;;;23.53;100.00;98925.80;1617003;86;21944;-72
2021/06/27 07:00:22;;;;;;;12.53;8.05;;;;;;;23.63;100.00;98928.52;1611683;88;21072;-72
2021/06/27 07:02:48;;;;;;;8.53;6.90;;;;;;;23.71;97.67;98933.39;1652590;86;21553;-72
2021/06/27 07:05:14;;;;;;;7.37;6.62;;;;;;;23.83;100.00;98931.45;1657753;86;20920;-72
2021/06/27 07:07:42;;;;;;;11.97;8.03;;;;;;;24.06;100.00;98934.95;1656749;85;21486;-71
2021/06/27 07:10:10;;;;;;;14.47;7.83;;;;;;;24.32;98.21;98932.79;1658556;85;21152;-73
2021/06/27 07:12:37;;;;;;;12.58;7.85;;;;;;;24.68;100.00;98938.66;1648386;85;21584;-72
2021/06/27 07:15:06;;;;;;;17.23;8.00;;;;;;;24.97;97.53;98927.76;1630678;86;21067;-72
2021/06/27 07:17:32;;;;;;;8.55;6.90;;;;;;;25.14;96.12;98936.30;1632896;86;21103;-72
2021/06/27 07:19:59;;;;;;;10.82;7.35;;;;;;;25.15;91.21;98926.05;1638532;86;21501;-71
2021/06/27 07:22:26;;;;;;;14.15;7.40;;;;;;;25.07;90.17;98934.41;1629309;86;21510;-72
2021/06/27 07:24:52;;;;;;;11.70;6.87;;;;;;;25.05;94.15;98926.23;1634567;87;20924;-72
2021/06/27 07:27:18;;;;;;;11.63;8.53;;;;;;;25.11;94.32;98933.73;1642512;87;21041;-72
2021/06/27 07:29:45;;;;;;;11.75;7.03;;;;;;;25.15;94.06;98933.67;1636736;87;20959;-72
2021/06/27 07:32:12;;;;;;;9.68;7.35;;;;;;;25.20;95.61;98924.75;1626709;87;21017;-72
2021/06/27 07:34:39;;;;;;;10.45;6.47;;;;;;;25.30;92.75;98927.98;1628361;87;21974;-72
2021/06/27 07:37:05;;;;;;;23.98;8.43;;;;;;;25.38;90.33;98916.80;1631048;87;20906;-71
2021/06/27 07:39:31;;;;;;;30.25;9.98;;;;;;;25.47;92.57;98914.18;1630331;87;21565;-72
2021/06/27 07:41:58;;;;;;;11.63;6.70;;;;;;;25.58;91.30;98910.55;1637017;87;21075;-72
2021/06/27 07:44:25;;;;;;;15.55;6.97;;;;;;;25.51;85.62;98907.09;1613519;88;21544;-74
2021/06/27 07:46:52;;;;;;;46.95;9.53;;;;;;;25.33;87.26;98915.27;1601071;88;21206;-76
2021/06/27 07:49:18;;;;;;;8.03;5.67;;;;;;;25.31;90.07;98911.31;1623583;87;21502;-75
2021/06/27 07:51:45;;;;;;;18.35;6.92;;;;;;;25.34;87.30;98909.84;1605585;88;21006;-73
2021/06/27 07:54:11;;;;;;;11.60;5.42;;;;;;;25.44;87.71;98908.63;1618180;88;20949;-76
2021/06/27 07:56:37;;;;;;;19.10;6.62;;;;;;;25.45;83.85;98907.41;1621639;88;21841;-75
2021/06/27 07:59:04;;;;;;;7.33;4.75;;;;;;;25.49;85.81;98917.34;1621565;88;21133;-74
2021/06/27 08:01:30;;;;;;;5.87;4.30;;;;;;;25.59;85.09;98913.54;1621560;88;20945;-75
2021/06/27 08:03:57;;;;;;;7.50;4.62;;;;;;;25.56;82.12;98920.02;1624013;85;21471;-75
2021/06/27 08:06:25;;;;;;;5.97;4.60;;;;;;;25.61;87.24;98921.54;1624520;87;20990;-76
2021/06/27 08:08:51;;;;;;;9.90;5.10;;;;;;;25.81;89.09;98920.16;1630596;85;21019;-74
2021/06/27 08:11:19;;;;;;;7.65;4.45;;;;;;;25.99;86.25;98920.58;1611572;87;21092;-75
2021/06/27 08:13:46;;;;;;;4.87;4.05;;;;;;;26.08;84.55;98908.09;1605932;89;20962;-75
2021/06/27 08:16:13;;;;;;;6.67;4.70;;;;;;;26.08;82.85;98915.75;1606300;89;20958;-73
2021/06/27 08:18:40;;;;;;;6.78;4.25;;;;;;;26.10;86.81;98914.08;1616325;88;21053;-72
2021/06/27 08:21:08;;;;;;;7.35;4.12;;;;;;;26.16;79.35;98908.12;1605573;89;21571;-74
2021/06/27 08:23:34;;;;;;;9.18;4.42;;;;;;;26.11;80.21;98918.48;1605781;89;21102;-75
2021/06/27 08:26:01;;;;;;;7.00;4.50;;;;;;;26.16;81.84;98922.80;1606219;89;20921;-75
2021/06/27 08:28:27;;;;;;;13.20;5.08;;;;;;;26.43;84.11;98924.82;1606101;89;20882;-75
2021/06/27 08:30:53;;;;;;;7.92;4.30;;;;;;;26.71;81.13;98924.73;1606163;89;20958;-74
2021/06/27 08:33:20;;;;;;;9.13;4.50;;;;;;;26.99;75.26;98921.85;1606033;89;20937;-76
2021/06/27 08:35:46;;;;;;;5.08;4.20;;;;;;;27.24;79.61;98913.52;1605918;89;21922;-77
2021/06/27 08:38:12;;;;;;;5.97;4.00;;;;;;;27.43;81.05;98910.39;1605873;89;20963;-77
2021/06/27 08:40:39;;;;;;;6.90;3.83;;;;;;;27.59;76.64;98908.16;1606034;89;20946;-75
2021/06/27 08:43:09;;;;;;;7.25;3.77;;;;;;;27.55;77.49;98913.08;1605964;89;20986;-76
2021/06/27 08:45:52;;;;;;;6.53;4.30;;;;;;;27.53;76.70;98912.73;1605961;89;21029;-76
2021/06/27 08:48:20;;;;;;;10.80;4.28;;;;;;;27.54;77.70;98909.47;1605997;89;21147;-77
2021/06/27 08:50:52;;;;;;;8.98;3.55;;;;;;;27.71;71.73;98902.39;1605802;89;20938;-76
2021/06/27 08:53:19;;;;;;;3.75;3.17;;;;;;;27.79;72.90;98903.13;1595663;89;21567;-78
2021/06/27 08:56:04;;;;;;;5.10;3.45;;;;;;;27.96;71.91;98902.42;1605949;89;21583;-86
2021/06/27 08:58:16;;;;;;;3.35;3.05;;;;;;;28.14;69.92;98897.66;1607272;88;21452;-84
2021/06/27 09:00:42;;;;;;;9.40;4.00;;;;;;;28.13;63.77;98898.28;1606041;89;21072;-86
2021/06/27 09:03:10;;;;;;;6.67;3.90;;;;;;;27.99;67.53;98892.28;1606123;89;21563;-76
2021/06/27 09:05:38;;;;;;;4.03;3.62;;;;;;;27.86;67.19;98897.27;1605947;89;20946;-82
2021/06/27 09:08:17;;;;;;;6.72;3.75;;;;;;;27.62;64.15;98897.41;1605693;89;20987;-81
2021/06/27 09:10:45;;;;;;;4.67;3.12;;;;;;;27.37;68.06;98896.66;1617187;85;21092;-72
2021/06/27 09:13:12;;;;;;;5.05;3.50;;;;;;;27.43;63.66;98885.02;1604759;89;21127;-70
2021/06/27 09:15:49;;;;;;;4.92;2.92;;;;;;;27.65;63.86;98885.23;1612158;85;21520;-74
2021/06/27 09:18:22;;;;;;;3.42;3.10;;;;;;;28.00;67.07;98899.50;1620177;87;20974;-73
2021/06/27 09:20:52;;;;;;;7.83;3.90;;;;;;;28.19;60.46;98886.60;1606583;85;21025;-73
2021/06/27 09:23:37;;;;;;;3.77;2.90;;;;;;;27.73;62.42;98891.45;1628544;87;20934;-70
2021/06/27 09:26:04;;;;;;;6.58;3.33;;;;;;;27.73;62.42;98891.45;1647947;87;21095;-74
2021/06/27 09:28:48;;;;;;;3.70;3.12;;;;;;;27.47;65.88;98892.76;1648000;87;20894;-73
2021/06/27 09:31:43;;;;;;;8.80;3.83;;;;;;;27.25;63.97;98897.40;1648034;87;21485;-75
2021/06/27 09:34:13;;;;;;;4.75;2.72;;;;;;;27.17;67.53;98893.19;1648260;87;21031;-73
2021/06/27 09:36:53;;;;;;;4.17;3.50;;;;;;;27.37;66.57;98892.44;1648290;87;20970;-71
2021/06/27 09:39:20;;;;;;;4.90;3.22;;;;;;;27.65;63.61;98892.91;1648089;87;21787;-71
2021/06/27 09:41:52;;;;;;;5.00;3.42;;;;;;;27.81;63.95;98895.63;1647872;87;20923;-75
2021/06/27 09:44:20;;;;;;;4.70;3.02;;;;;;;28.00;62.71;98905.94;1648014;87;21057;-73
2021/06/27 09:46:50;;;;;;;8.25;3.37;;;;;;;28.25;59.75;98896.11;1651342;86;20982;-76
2021/06/27 09:49:29;;;;;;;4.40;2.98;;;;;;;28.47;61.29;98889.77;1647929;86;21559;-75
2021/06/27 09:52:07;;;;;;;3.20;2.90;;;;;;;28.82;60.06;98899.92;1646877;85;21151;-81
2021/06/27 09:54:32;;;;;;;7.00;3.17;;;;;;;29.09;55.69;98897.97;1675321;85;20991;-72
2021/06/27 09:56:59;;;;;;;4.42;3.27;;;;;;;29.15;58.10;98890.49;1675370;85;21502;-74
2021/06/27 09:59:35;;;;;;;5.65;3.42;;;;;;;29.14;56.14;98892.36;1675288;85;20869;-76
2021/06/27 10:02:02;;;;;;;4.05;3.12;;;;;;;29.03;55.75;98899.00;1675551;85;20949;-76
2021/06/27 10:04:32;;;;;;;6.08;3.37;;;;;;;28.95;55.91;98896.25;1675364;85;21140;-72
2021/06/27 10:07:01;;;;;;;4.10;3.05;;;;;;;28.82;55.29;98892.87;1675265;85;20948;-73
2021/06/27 10:09:34;;;;;;;7.75;3.60;;;;;;;28.75;57.69;98897.31;1675343;85;20955;-82
2021/06/27 10:12:19;;;;;;;6.25;3.52;;;;;;;28.80;56.84;98893.91;1675586;85;21055;-71
2021/06/27 10:14:55;;;;;;;6.35;3.90;;;;;;;28.70;55.57;98894.27;1685471;83;20857;-74
2021/06/27 10:17:26;;;;;;;4.40;3.40;;;;;;;28.52;54.62;98896.26;1664385;85;20958;-70
2021/06/27 10:19:54;;;;;;;6.45;3.60;;;;;;;28.50;54.70;98895.92;1648345;86;20936;-72
2021/06/27 10:22:25;;;;;;;7.28;4.17;;;;;;;28.55;56.54;98894.73;1646624;86;20973;-75
2021/06/27 10:24:53;;;;;;;7.40;3.83;;;;;;;28.60;55.82;98893.38;1630814;87;20967;-75
2021/06/27 10:27:20;;;;;;;8.53;3.77;;;;;;;28.55;54.50;98893.94;1630721;88;20964;-76
2021/06/27 10:29:48;;;;;;;4.00;3.47;;;;;;;28.36;55.57;98894.96;1638162;87;21086;-79
2021/06/27 10:32:16;;;;;;;5.33;3.80;;;;;;;28.42;58.73;98893.95;1643542;87;20950;-77
2021/06/27 10:34:43;;;;;;;3.80;3.50;;;;;;;28.58;56.81;98907.95;1641720;87;21564;-78
2021/06/27 10:37:19;;;;;;;7.40;4.60;;;;;;;28.58;55.49;98903.70;1642219;87;21048;-78
2021/06/27 10:39:58;;;;;;;5.70;4.20;;;;;;;28.66;57.64;98906.30;1642041;87;21493;-83
2021/06/27 10:42:58;;;;;;;7.12;4.00;;;;;;;28.94;56.89;98911.00;1641848;87;48798;-76
2021/06/27 10:45:30;;;;;;;9.05;4.00;;;;;;;29.15;54.34;98909.48;1642327;87;20940;-85
2021/06/27 10:48:00;;;;;;;6.97;4.12;;;;;;;29.27;53.50;98917.14;1642604;87;20908;-72
2021/06/27 10:50:50;;;;;;;7.55;4.47;;;;;;;29.39;55.37;98919.13;1642284;87;20917;-72
2021/06/27 10:53:17;;;;;;;7.17;4.45;;;;;;;29.59;54.06;98917.41;1642609;87;20913;-75
2021/06/27 10:55:45;;;;;;;6.90;4.72;;;;;;;29.43;53.27;98914.16;1645112;86;22001;-74
2021/06/27 10:58:15;;;;;;;7.28;4.58;;;;;;;29.29;54.72;98922.33;1629065;86;20969;-69
2021/06/27 11:00:57;;;;;;;6.20;3.90;;;;;;;29.23;54.27;98922.12;1631469;86;20980;-75
2021/06/27 11:03:45;;;;;;;4.17;3.60;;;;;;;29.06;54.51;98929.97;1637501;84;21797;-70
2021/06/27 11:06:23;;;;;;;5.90;3.70;;;;;;;28.88;53.84;98934.04;1638639;84;21581;-80
2021/06/27 11:08:55;;;;;;;4.08;3.67;;;;;;;28.60;54.09;98932.28;1633486;85;22198;-73
2021/06/27 11:11:21;;;;;;;5.33;3.12;;;;;;;28.21;54.98;98938.36;1657352;86;20930;-75
2021/06/27 11:14:16;;;;;;;3.50;3.20;;;;;;;27.98;57.45;98940.06;1642571;85;20972;-77
2021/06/27 11:17:02;;;;;;;4.80;3.40;;;;;;;27.85;56.60;98942.23;1644313;85;21104;-73
2021/06/27 11:19:41;;;;;;;4.78;3.58;;;;;;;27.61;57.85;98940.93;1645178;86;21128;-71
2021/06/27 11:22:26;;;;;;;4.67;3.45;;;;;;;27.39;58.56;98944.92;1658447;86;21123;-73
2021/06/27 11:24:57;;;;;;;4.15;3.37;;;;;;;27.22;58.17;98943.36;1637490;85;20919;-72
2021/06/27 11:27:29;;;;;;;7.10;3.85;;;;;;;27.03;57.69;98947.11;1630991;85;20944;-71